createdAt,value
2023-01-15T00:02:07.168Z,1.20
2023-01-15T00:04:36.147Z,0.90
2023-01-15T00:07:04.405Z,1.00
2023-01-15T00:09:32.047Z,1.67
2023-01-15T00:12:00.726Z,1.10
2023-01-15T00:14:28.490Z,1.42
2023-01-15T00:16:55.986Z,0.90
2023-01-15T00:19:23.502Z,1.00
2023-01-15T00:21:53.865Z,0.85
2023-01-15T00:24:39.441Z,0.80
2023-01-15T00:27:24.851Z,1.08
2023-01-15T00:29:52.498Z,0.80
2023-01-15T00:32:20.010Z,1.15
2023-01-15T00:34:47.530Z,0.73
2023-01-15T00:37:17.363Z,1.00
2023-01-15T00:39:45.000Z,0.77
2023-01-15T00:42:13.148Z,0.75
2023-01-15T00:44:40.749Z,0.98
2023-01-15T00:47:14.102Z,1.30
2023-01-15T00:49:41.775Z,1.73
2023-01-15T00:52:09.477Z,1.30
2023-01-15T00:54:38.492Z,1.13
2023-01-15T00:57:06.547Z,0.93
2023-01-15T00:59:34.131Z,1.20
2023-01-15T01:02:01.760Z,1.02
2023-01-15T01:04:29.707Z,0.98
2023-01-15T01:06:57.340Z,0.95
2023-01-15T01:09:24.908Z,1.08
2023-01-15T01:11:53.838Z,0.90
2023-01-15T01:14:21.455Z,1.05
2023-01-15T01:16:49.004Z,1.23
2023-01-15T01:19:19.111Z,1.30
2023-01-15T01:21:48.458Z,0.63
2023-01-15T01:24:18.449Z,0.80
2023-01-15T01:26:46.809Z,1.00
2023-01-15T01:29:16.608Z,0.95
2023-01-15T01:31:44.722Z,1.20
2023-01-15T01:34:13.547Z,0.73
2023-01-15T01:36:42.877Z,0.90
2023-01-15T01:39:14.961Z,1.30
2023-01-15T01:41:42.889Z,1.02
2023-01-15T01:44:43.809Z,1.05
2023-01-15T01:47:15.704Z,1.17
2023-01-15T01:49:45.057Z,1.00
2023-01-15T01:52:17.749Z,1.40
2023-01-15T01:54:47.478Z,1.48
2023-01-15T01:57:16.833Z,1.30
2023-01-15T01:59:45.269Z,1.10
2023-01-15T02:02:14.901Z,1.15
2023-01-15T02:04:42.908Z,1.33
2023-01-15T02:07:10.470Z,1.13
2023-01-15T02:09:38.459Z,1.67
2023-01-15T02:12:12.611Z,1.60
2023-01-15T02:14:46.811Z,1.15
2023-01-15T02:17:19.552Z,1.60
2023-01-15T02:19:54.394Z,1.45
2023-01-15T02:22:36.019Z,1.40
2023-01-15T02:25:13.337Z,1.40
2023-01-15T02:27:47.076Z,1.42
2023-01-15T02:30:22.987Z,1.33
2023-01-15T02:32:59.282Z,1.23
2023-01-15T02:35:32.978Z,1.20
2023-01-15T02:38:03.660Z,1.33
2023-01-15T02:40:33.533Z,1.15
2023-01-15T02:43:02.574Z,0.90
2023-01-15T02:45:33.736Z,1.63
2023-01-15T02:48:12.162Z,1.30
2023-01-15T02:50:42.802Z,1.00
2023-01-15T02:53:19.331Z,1.30
2023-01-15T02:55:51.251Z,0.98
2023-01-15T02:58:26.513Z,1.30
2023-01-15T03:00:56.413Z,1.00
2023-01-15T03:03:33.684Z,1.23
2023-01-15T03:06:06.711Z,1.27
2023-01-15T03:08:35.660Z,1.13
2023-01-15T03:11:07.781Z,1.40
2023-01-15T03:13:47.449Z,1.02
2023-01-15T03:16:38.232Z,0.95
2023-01-15T03:19:16.545Z,0.82
2023-01-15T03:21:49.596Z,1.23
2023-01-15T03:24:25.933Z,1.00
2023-01-15T03:26:54.022Z,1.08
2023-01-15T03:29:25.983Z,1.05
2023-01-15T03:31:54.782Z,1.10
2023-01-15T03:34:22.472Z,1.20
2023-01-15T03:36:50.363Z,1.25
2023-01-15T03:39:19.485Z,1.10
2023-01-15T03:42:16.147Z,1.13
2023-01-15T03:44:54.389Z,1.05
2023-01-15T03:47:32.728Z,1.15
2023-01-15T03:50:05.859Z,0.77
2023-01-15T03:52:45.748Z,1.35
2023-01-15T03:55:17.416Z,1.48
2023-01-15T03:57:59.752Z,1.27
2023-01-15T04:00:35.163Z,1.42
2023-01-15T04:03:04.836Z,1.17
2023-01-15T04:05:35.816Z,1.48
2023-01-15T04:08:05.009Z,1.25
2023-01-15T04:10:33.691Z,1.35
2023-01-15T04:13:03.609Z,1.13
2023-01-15T04:15:32.612Z,1.15
2023-01-15T04:18:00.283Z,1.75
2023-01-15T04:20:30.229Z,1.45
2023-01-15T04:22:57.993Z,1.33
2023-01-15T04:25:25.561Z,1.33
2023-01-15T04:27:55.006Z,1.13
2023-01-15T04:30:22.743Z,0.95
2023-01-15T04:32:52.686Z,1.30
2023-01-15T04:35:21.309Z,1.10
2023-01-15T04:37:48.962Z,1.65
2023-01-15T04:40:30.867Z,1.35
2023-01-15T04:43:16.397Z,1.15
2023-01-15T04:45:44.351Z,1.20
2023-01-15T04:48:13.670Z,1.38
2023-01-15T04:50:41.380Z,1.48
2023-01-15T04:53:09.087Z,1.27
2023-01-15T04:55:36.851Z,1.10
2023-01-15T04:58:04.544Z,1.48
2023-01-15T05:00:32.240Z,1.20
2023-01-15T05:02:59.848Z,1.27
2023-01-15T05:05:28.782Z,1.40
2023-01-15T05:07:56.293Z,1.27
2023-01-15T05:10:23.800Z,1.67
2023-01-15T05:12:51.322Z,1.02
2023-01-15T05:15:19.106Z,1.40
2023-01-15T05:17:46.704Z,1.20
2023-01-15T05:20:14.940Z,1.50
2023-01-15T05:22:43.874Z,1.58
2023-01-15T05:25:11.433Z,1.27
2023-01-15T05:27:38.969Z,1.58
2023-01-15T05:30:07.970Z,1.10
2023-01-15T05:32:35.554Z,1.38
2023-01-15T05:35:03.093Z,1.17
2023-01-15T05:37:31.512Z,1.90
2023-01-15T05:40:00.420Z,1.63
2023-01-15T05:42:28.538Z,1.77
2023-01-15T05:44:56.189Z,1.63
2023-01-15T05:47:23.756Z,1.10
2023-01-15T05:49:51.402Z,2.65
2023-01-15T05:52:19.126Z,1.30
2023-01-15T05:54:46.793Z,1.20
2023-01-15T05:57:15.720Z,1.38
2023-01-15T05:59:43.285Z,1.65
2023-01-15T06:02:10.875Z,1.75
2023-01-15T06:04:38.639Z,1.50
2023-01-15T06:07:06.278Z,1.58
2023-01-15T06:09:33.887Z,2.20
2023-01-15T06:12:01.381Z,1.30
2023-01-15T06:14:30.360Z,1.60
2023-01-15T06:16:57.944Z,1.35
2023-01-15T06:19:25.721Z,1.23
2023-01-15T06:21:53.360Z,1.50
2023-01-15T06:24:21.021Z,1.75
2023-01-15T06:26:48.602Z,1.67
2023-01-15T06:29:18.763Z,2.15
2023-01-15T06:31:49.264Z,1.30
2023-01-15T06:34:17.082Z,1.30
2023-01-15T06:36:44.657Z,1.50
2023-01-15T06:39:12.551Z,1.70
2023-01-15T06:41:58.096Z,1.55
2023-01-15T06:44:43.890Z,1.73
2023-01-15T06:47:23.466Z,1.33
2023-01-15T06:49:53.906Z,1.58
2023-01-15T06:52:21.572Z,1.60
2023-01-15T06:54:49.131Z,1.88
2023-01-15T06:57:18.731Z,1.80
2023-01-15T06:59:46.369Z,1.80
2023-01-15T07:02:15.360Z,1.60
2023-01-15T07:04:42.937Z,1.77
2023-01-15T07:07:10.556Z,1.27
2023-01-15T07:09:38.186Z,2.28
2023-01-15T07:12:05.983Z,1.30
2023-01-15T07:14:33.542Z,1.73
2023-01-15T07:17:01.142Z,1.42
2023-01-15T07:19:30.084Z,1.55
2023-01-15T07:21:57.660Z,1.90
2023-01-15T07:24:25.219Z,1.77
2023-01-15T07:26:52.755Z,1.52
2023-01-15T07:29:20.462Z,1.40
2023-01-15T07:31:48.106Z,1.73
2023-01-15T07:34:15.877Z,1.75
2023-01-15T07:36:44.849Z,2.53
2023-01-15T07:39:13.316Z,1.80
2023-01-15T07:41:58.343Z,2.00
2023-01-15T07:44:44.113Z,1.58
2023-01-15T07:47:38.056Z,1.80
2023-01-15T07:50:07.660Z,1.70
2023-01-15T07:52:37.888Z,2.55
2023-01-15T07:55:06.077Z,3.22
2023-01-15T07:57:33.602Z,2.33
2023-01-15T08:00:01.404Z,2.00
2023-01-15T08:02:28.999Z,1.40
2023-01-15T08:04:56.638Z,2.10
2023-01-15T08:07:24.578Z,1.77
2023-01-15T08:09:53.520Z,2.00
2023-01-15T08:12:38.783Z,1.70
2023-01-15T08:15:16.628Z,1.70
2023-01-15T08:17:46.409Z,2.42
2023-01-15T08:20:16.620Z,1.73
2023-01-15T08:22:44.375Z,1.50
2023-01-15T08:25:15.874Z,1.85
2023-01-15T08:27:44.027Z,1.80
2023-01-15T08:30:14.574Z,2.05
2023-01-15T08:32:42.503Z,1.33
2023-01-15T08:35:10.929Z,1.83
2023-01-15T08:37:38.523Z,1.70
2023-01-15T08:40:07.678Z,1.65
2023-01-15T08:42:36.784Z,2.38
2023-01-15T08:45:04.935Z,1.23
2023-01-15T08:47:32.757Z,1.58
2023-01-15T08:50:00.422Z,2.45
2023-01-15T08:52:28.031Z,1.58
2023-01-15T08:54:55.564Z,1.50
2023-01-15T08:57:23.109Z,1.70
2023-01-15T08:59:51.957Z,2.72
2023-01-15T09:02:19.737Z,2.35
2023-01-15T09:04:47.315Z,2.13
2023-01-15T09:07:14.889Z,1.35
2023-01-15T09:09:42.463Z,1.42
2023-01-15T09:12:09.990Z,1.88
2023-01-15T09:14:59.668Z,1.42
2023-01-15T09:17:26.502Z,1.98
2023-01-15T09:19:54.197Z,2.15
2023-01-15T09:22:21.749Z,1.98
2023-01-15T09:24:49.322Z,1.65
2023-01-15T09:27:16.916Z,2.25
2023-01-15T09:29:44.414Z,1.73
2023-01-15T09:32:12.721Z,1.83
2023-01-15T09:34:41.632Z,1.98
2023-01-15T09:37:09.460Z,2.00
2023-01-15T09:39:38.842Z,1.55
2023-01-15T09:42:18.569Z,1.50
2023-01-15T09:45:07.148Z,1.60
2023-01-15T09:47:37.684Z,1.75
2023-01-15T09:50:21.736Z,1.27
2023-01-15T09:53:11.639Z,1.25
2023-01-15T09:55:46.208Z,1.40
2023-01-15T09:58:15.809Z,1.10
2023-01-15T10:00:46.671Z,1.40
2023-01-15T10:03:29.049Z,0.88
2023-01-15T10:06:07.561Z,1.00
2023-01-15T10:08:40.044Z,1.38
2023-01-15T10:11:50.373Z,1.65
2023-01-15T10:14:38.849Z,1.00
2023-01-15T10:17:20.234Z,1.50
2023-01-15T10:19:48.002Z,1.27
2023-01-15T10:22:26.696Z,1.80
2023-01-15T10:24:57.852Z,1.33
2023-01-15T10:27:40.133Z,1.60
2023-01-15T10:30:17.692Z,1.63
2023-01-15T10:33:01.513Z,1.35
2023-01-15T10:35:37.399Z,1.35
2023-01-15T10:38:15.274Z,1.95
2023-01-15T10:41:27.612Z,1.52
2023-01-15T10:44:00.419Z,1.20
2023-01-15T10:46:33.378Z,1.42
2023-01-15T10:49:05.710Z,0.93
2023-01-15T10:51:41.301Z,1.40
2023-01-15T10:54:17.421Z,1.60
2023-01-15T10:56:51.064Z,1.50
2023-01-15T10:59:22.966Z,1.40
2023-01-15T11:01:53.892Z,1.10
2023-01-15T11:04:22.335Z,1.20
2023-01-15T11:06:50.040Z,1.20
2023-01-15T11:09:23.040Z,1.42
2023-01-15T11:12:09.802Z,2.90
2023-01-15T11:14:56.967Z,1.00
2023-01-15T11:17:43.122Z,1.60
2023-01-15T11:20:22.431Z,1.65
2023-01-15T11:22:50.286Z,2.00
2023-01-15T11:25:29.580Z,1.42
2023-01-15T11:27:58.546Z,1.30
2023-01-15T11:30:29.194Z,1.63
2023-01-15T11:32:58.587Z,1.70
2023-01-15T11:35:27.255Z,2.00
2023-01-15T11:38:06.938Z,1.45
2023-01-15T11:40:35.853Z,1.45
2023-01-15T11:43:29.472Z,1.20
2023-01-15T11:46:14.644Z,1.70
2023-01-15T11:49:04.108Z,1.95
2023-01-15T11:51:33.271Z,1.00
2023-01-15T11:54:04.796Z,0.75
2023-01-15T11:56:35.591Z,0.90
2023-01-15T11:59:09.953Z,0.60
2023-01-15T12:01:43.369Z,0.75
2023-01-15T12:04:31.457Z,0.55
2023-01-15T12:07:00.139Z,0.40
2023-01-15T12:09:38.463Z,0.60
2023-01-15T12:12:20.295Z,0.40
2023-01-15T12:15:09.105Z,0.80
2023-01-15T12:18:04.879Z,0.95
2023-01-15T12:20:42.157Z,1.20
2023-01-15T12:23:43.514Z,0.80
2023-01-15T12:26:19.597Z,0.80
2023-01-15T12:28:55.785Z,1.00
2023-01-15T12:31:30.224Z,1.23
2023-01-15T12:34:03.850Z,1.00
2023-01-15T12:36:37.961Z,1.17
2023-01-15T12:39:15.662Z,1.23
2023-01-15T12:42:06.153Z,1.27
2023-01-15T12:44:58.240Z,1.30
2023-01-15T12:47:30.347Z,1.02
2023-01-15T12:50:02.255Z,1.15
2023-01-15T12:52:36.633Z,1.50
2023-01-15T12:55:13.828Z,1.50
2023-01-15T12:57:45.417Z,1.27
2023-01-15T13:00:18.090Z,2.08
2023-01-15T13:02:58.731Z,1.15
2023-01-15T13:05:31.694Z,1.40
2023-01-15T13:08:04.475Z,1.73
2023-01-15T13:10:35.508Z,2.35
2023-01-15T13:13:16.775Z,1.95
2023-01-15T13:16:01.340Z,1.40
2023-01-15T13:18:36.040Z,2.03
2023-01-15T13:21:08.672Z,1.60
2023-01-15T13:23:50.534Z,1.33
2023-01-15T13:26:35.451Z,1.30
2023-01-15T13:29:14.619Z,1.38
2023-01-15T13:31:54.842Z,1.70
2023-01-15T13:34:29.363Z,1.27
2023-01-15T13:37:00.791Z,1.60
2023-01-15T13:39:37.865Z,1.60
2023-01-15T13:42:24.100Z,1.42
2023-01-15T13:44:54.308Z,1.50
2023-01-15T13:47:26.426Z,1.52
2023-01-15T13:49:56.158Z,0.95
2023-01-15T13:52:28.540Z,2.13
2023-01-15T13:54:59.790Z,1.50
2023-01-15T13:57:34.715Z,1.00
2023-01-15T14:00:03.986Z,1.75
2023-01-15T14:02:41.681Z,1.55
2023-01-15T14:05:29.131Z,1.73
2023-01-15T14:07:57.109Z,1.40
2023-01-15T14:10:38.500Z,1.13
2023-01-15T14:13:33.798Z,1.67
2023-01-15T14:16:13.083Z,1.95
2023-01-15T14:18:59.164Z,1.20
2023-01-15T14:21:34.225Z,1.27
2023-01-15T14:24:46.335Z,1.60
2023-01-15T14:27:23.038Z,1.30
2023-01-15T14:30:25.891Z,1.85
2023-01-15T14:33:02.785Z,1.70
2023-01-15T14:35:38.250Z,1.92
2023-01-15T14:38:07.906Z,1.83
2023-01-15T14:40:36.789Z,1.55
2023-01-15T14:43:11.050Z,2.33
2023-01-15T14:45:41.714Z,1.38
2023-01-15T14:48:19.855Z,1.27
2023-01-15T14:50:50.009Z,1.20
2023-01-15T14:53:30.856Z,2.00
2023-01-15T14:56:03.443Z,1.40
2023-01-15T14:58:37.634Z,2.30
2023-01-15T15:01:15.645Z,1.25
2023-01-15T15:03:51.817Z,1.70
2023-01-15T15:06:21.912Z,2.45
2023-01-15T15:08:51.544Z,1.85
2023-01-15T15:11:51.167Z,1.70
2023-01-15T15:14:19.374Z,1.80
2023-01-15T15:16:51.511Z,2.53
2023-01-15T15:19:27.773Z,2.17
2023-01-15T15:22:00.352Z,2.15
2023-01-15T15:24:30.987Z,1.00
2023-01-15T15:26:58.585Z,2.60
2023-01-15T15:29:26.224Z,2.25
2023-01-15T15:31:57.633Z,2.05
2023-01-15T15:34:29.145Z,1.92
2023-01-15T15:37:01.457Z,2.03
2023-01-15T15:39:36.628Z,1.48
2023-01-15T15:42:29.742Z,1.08
2023-01-15T15:45:18.409Z,1.52
2023-01-15T15:48:03.673Z,1.55
2023-01-15T15:50:33.213Z,2.28
2023-01-15T15:53:04.508Z,1.98
2023-01-15T15:55:39.458Z,2.40
2023-01-15T15:58:09.289Z,3.85
2023-01-15T16:00:41.463Z,3.85
2023-01-15T16:03:20.077Z,3.97
2023-01-15T16:05:57.038Z,3.00
2023-01-15T16:08:27.022Z,3.10
2023-01-15T16:10:56.476Z,3.80
2023-01-15T16:13:27.387Z,3.72
2023-01-15T16:15:58.118Z,3.90
2023-01-15T16:18:28.840Z,4.10
2023-01-15T16:20:57.366Z,4.90
2023-01-15T16:23:28.177Z,6.00
2023-01-15T16:26:07.434Z,6.40
2023-01-15T16:28:41.604Z,6.07
2023-01-15T16:31:09.621Z,5.43
2023-01-15T16:33:38.572Z,5.40
2023-01-15T16:36:07.855Z,4.55
2023-01-15T16:38:40.002Z,4.00
2023-01-15T16:41:08.203Z,4.20
2023-01-15T16:43:52.539Z,4.72
2023-01-15T16:46:22.479Z,4.00
2023-01-15T16:48:50.262Z,3.05
2023-01-15T16:51:30.624Z,3.92
2023-01-15T16:54:01.886Z,3.13
2023-01-15T16:56:51.575Z,2.63
2023-01-15T16:59:37.718Z,3.05
2023-01-15T17:02:12.997Z,3.70
2023-01-15T17:04:42.441Z,3.30
2023-01-15T17:07:19.293Z,2.72
2023-01-15T17:09:50.925Z,3.45
2023-01-15T17:12:25.793Z,3.92
2023-01-15T17:14:53.577Z,3.42
2023-01-15T17:17:29.854Z,2.47
2023-01-15T17:19:57.933Z,2.80
2023-01-15T17:22:28.925Z,3.80
2023-01-15T17:24:58.961Z,3.08
2023-01-15T17:27:27.800Z,3.45
2023-01-15T17:29:56.186Z,2.75
2023-01-15T17:32:29.842Z,3.05
2023-01-15T17:34:57.666Z,3.60
2023-01-15T17:37:25.267Z,4.20
2023-01-15T17:39:52.929Z,2.80
2023-01-15T17:42:21.799Z,2.30
2023-01-15T17:44:49.421Z,2.35
2023-01-15T17:47:16.969Z,2.90
2023-01-15T17:49:44.538Z,2.72
2023-01-15T17:52:19.234Z,2.75
2023-01-15T17:55:19.042Z,3.28
2023-01-15T17:58:05.479Z,3.45
2023-01-15T18:00:50.545Z,3.47
2023-01-15T18:03:39.329Z,3.88
2023-01-15T18:06:08.177Z,4.07
2023-01-15T18:08:36.230Z,3.00
2023-01-15T18:11:03.827Z,3.03
2023-01-15T18:13:32.743Z,3.00
2023-01-15T18:16:00.399Z,3.17
2023-01-15T18:18:28.073Z,2.80
2023-01-15T18:20:55.629Z,3.38
2023-01-15T18:23:23.232Z,2.92
2023-01-15T18:25:50.922Z,3.10
2023-01-15T18:28:18.847Z,2.45
2023-01-15T18:30:47.744Z,2.78
2023-01-15T18:33:15.480Z,2.60
2023-01-15T18:35:42.984Z,3.58
2023-01-15T18:38:10.491Z,2.72
2023-01-15T18:40:38.089Z,3.65
2023-01-15T18:43:23.181Z,3.83
2023-01-15T18:46:12.020Z,3.28
2023-01-15T18:48:39.572Z,3.30
2023-01-15T18:51:11.965Z,3.40
2023-01-15T18:53:39.974Z,4.30
2023-01-15T18:56:08.133Z,3.60
2023-01-15T18:58:35.658Z,2.47
2023-01-15T19:01:09.063Z,2.80
2023-01-15T19:03:36.748Z,2.70
2023-01-15T19:06:08.493Z,2.53
2023-01-15T19:08:36.120Z,2.45
2023-01-15T19:11:11.755Z,2.40
2023-01-15T19:13:39.389Z,2.22
2023-01-15T19:16:26.079Z,2.00
2023-01-15T19:18:53.699Z,2.35
2023-01-15T19:21:22.004Z,2.20
2023-01-15T19:23:49.611Z,2.22
2023-01-15T19:26:17.120Z,2.60
2023-01-15T19:28:44.808Z,2.00
2023-01-15T19:31:31.276Z,2.17
2023-01-15T19:34:31.214Z,2.42
2023-01-15T19:36:48.249Z,2.88
2023-01-15T19:39:17.636Z,2.35
2023-01-15T19:42:03.123Z,2.67
2023-01-15T19:44:48.302Z,2.72
2023-01-15T19:47:54.861Z,2.72
2023-01-15T19:50:26.580Z,2.78
2023-01-15T19:52:55.894Z,3.25
2023-01-15T19:55:24.965Z,2.75
2023-01-15T19:57:57.971Z,3.03
2023-01-15T20:00:26.248Z,3.30
2023-01-15T20:02:56.309Z,2.90
2023-01-15T20:05:24.571Z,3.42
2023-01-15T20:07:52.372Z,3.53
2023-01-15T20:10:22.065Z,3.53
2023-01-15T20:13:08.488Z,4.13
2023-01-15T20:15:38.032Z,2.95
2023-01-15T20:18:07.122Z,3.22
2023-01-15T20:20:35.311Z,3.08
2023-01-15T20:23:02.928Z,3.08
2023-01-15T20:25:30.947Z,2.97
2023-01-15T20:28:00.070Z,3.25
2023-01-15T20:30:28.593Z,2.60
2023-01-15T20:32:57.958Z,2.50
2023-01-15T20:35:31.151Z,3.00
2023-01-15T20:37:59.038Z,2.80
2023-01-15T20:40:27.915Z,2.90
2023-01-15T20:43:13.779Z,2.63
2023-01-15T20:45:41.612Z,2.65
2023-01-15T20:48:27.027Z,2.67
2023-01-15T20:51:01.784Z,2.60
2023-01-15T20:53:33.251Z,3.00
2023-01-15T20:56:01.169Z,3.10
2023-01-15T20:58:28.891Z,3.08
2023-01-15T21:01:03.322Z,2.72
2023-01-15T21:03:31.132Z,2.65
2023-01-15T21:06:00.036Z,3.05
2023-01-15T21:08:27.772Z,2.67
2023-01-15T21:10:55.969Z,3.03
2023-01-15T21:13:24.409Z,2.80
2023-01-15T21:15:57.826Z,2.20
2023-01-15T21:18:25.496Z,3.13
2023-01-15T21:20:53.155Z,2.40
2023-01-15T21:23:22.111Z,3.20
2023-01-15T21:25:49.811Z,3.13
2023-01-15T21:28:17.339Z,2.92
2023-01-15T21:30:45.511Z,2.60
2023-01-15T21:33:13.760Z,2.80
2023-01-15T21:35:41.399Z,2.80
2023-01-15T21:38:09.550Z,2.92
2023-01-15T21:40:39.022Z,3.80
2023-01-15T21:43:25.054Z,3.35
2023-01-15T21:45:52.974Z,3.10
2023-01-15T21:48:20.575Z,3.53
2023-01-15T21:50:48.091Z,2.80
2023-01-15T21:53:15.691Z,2.55
2023-01-15T21:55:50.563Z,2.65
2023-01-15T21:58:18.390Z,3.13
2023-01-15T22:00:46.010Z,2.92
2023-01-15T22:03:17.288Z,2.63
2023-01-15T22:05:44.946Z,2.60
2023-01-15T22:08:12.599Z,2.72
2023-01-15T22:10:40.123Z,4.07
2023-01-15T22:13:09.058Z,3.47
2023-01-15T22:15:36.650Z,3.95
2023-01-15T22:18:04.347Z,2.85
2023-01-15T22:20:33.441Z,2.63
2023-01-15T22:23:01.053Z,3.42
2023-01-15T22:25:28.587Z,2.80
2023-01-15T22:27:57.657Z,4.25
2023-01-15T22:30:26.510Z,3.85
2023-01-15T22:32:54.033Z,3.22
2023-01-15T22:35:22.548Z,3.13
2023-01-15T22:37:50.102Z,3.22
2023-01-15T22:40:17.878Z,3.00
2023-01-15T22:42:44.422Z,2.83
2023-01-15T22:45:12.104Z,2.78
2023-01-15T22:47:41.067Z,2.55
2023-01-15T22:50:10.039Z,2.85
2023-01-15T22:52:39.119Z,3.25
2023-01-15T22:55:07.582Z,3.15
2023-01-15T22:57:36.253Z,2.67
2023-01-15T23:00:06.731Z,3.10
2023-01-15T23:02:51.978Z,3.00
2023-01-15T23:05:21.154Z,2.97
2023-01-15T23:07:48.977Z,2.67
2023-01-15T23:10:17.116Z,2.90
2023-01-15T23:12:44.915Z,3.03
2023-01-15T23:15:15.871Z,3.25
2023-01-15T23:17:43.795Z,2.67
2023-01-15T23:20:13.018Z,2.70
2023-01-15T23:22:41.896Z,2.92
2023-01-15T23:25:10.021Z,2.78
2023-01-15T23:27:37.828Z,3.00
2023-01-15T23:30:06.387Z,2.58
2023-01-15T23:32:33.938Z,3.92
2023-01-15T23:35:01.519Z,3.70
2023-01-15T23:37:29.304Z,3.92
2023-01-15T23:39:58.281Z,4.07
2023-01-15T23:42:44.742Z,4.15
2023-01-15T23:45:30.466Z,4.35
2023-01-15T23:47:58.079Z,3.60
2023-01-15T23:50:25.872Z,3.78
2023-01-15T23:52:53.398Z,3.90
2023-01-15T23:55:22.326Z,4.63
2023-01-15T23:57:49.778Z,3.88
